Weather reports worldwide

Advertisment
Zinnwald-Georgenfeld, Germany (10582): temperature & dewpoint: 17.09.2018 03:00:00 - 23.09.2018 03:00:00 (CEST)Zinnwald-Georgenfeld, Germany (10582): temperature 5cm & temperature -5cm: 17.09.2018 03:00:00 - 23.09.2018 03:00:00 (CEST)Zinnwald-Georgenfeld, Germany (10582): temperature -20cm & temperature -100cm: 17.09.2018 03:00:00 - 23.09.2018 03:00:00 (CEST)Zinnwald-Georgenfeld, Germany (10582): wind speed & gusts: 17.09.2018 03:00:00 - 23.09.2018 03:00:00 (CEST)Zinnwald-Georgenfeld, Germany (10582): wind direction: 17.09.2018 03:00:00 - 23.09.2018 03:00:00 (CEST)Zinnwald-Georgenfeld, Germany (10582): visibility: 17.09.2018 03:00:00 - 23.09.2018 03:00:00 (CEST)Zinnwald-Georgenfeld, Germany (10582): sunshine duration: 17.09.2018 03:00:00 - 23.09.2018 03:00:00 (CEST)Zinnwald-Georgenfeld, Germany (10582): precipitation: 17.09.2018 03:00:00 - 23.09.2018 03:00:00 (CEST)
Date & Time tt [°C] td [°C] tt 5cm [°C] tt -5cm [°C] tt -20cm [°C] tt -100cm [°C] ff [km/h] ff [kn] fx [km/h] fx [kn] dd vv [km] sd [min] rr [mm]
23.09.2018 03:00:00 6,6 4,5 6,0 7,6 11,3 14,6 12 7 37 20 WNW 47 0 0,0
23.09.2018 02:00:00 7,8 2,9 7,1 7,8 11,5 14,6 21 11 37 20 W 55 0 0,0
23.09.2018 01:00:00 8,1 2,7 7,5 8,0 11,8 14,6 18 10 34 18 WSW 65 0 0,0
23.09.2018 00:00:00 8,1 2,8 7,5 8,0 12,0 14,6 22 12 41 22 W 70 0 0,0
22.09.2018 23:00:00 8,4 2,9 7,9 8,3 12,3 14,7 23 12 38 20 W 70 0 0,0
22.09.2018 22:00:00 8,5 2,7 7,9 8,6 12,7 14,7 20 11 34 18 WSW 70 0 0,0
22.09.2018 21:00:00 8,6 2,2 8,0 9,2 13,0 14,7 21 12 32 17 SW 70 0 0,0
22.09.2018 20:00:00 8,1 2,0 7,4 9,8 13,2 14,7 14 8 21 11 SW 70 0 0,0
22.09.2018 19:00:00 9,2 2,0 8,5 10,8 13,4 14,7 16 9 27 14 WSW 70 0 0,0
22.09.2018 18:00:00 10,0 2,1 9,7 12,2 13,5 14,7 15 8 29 15 WSW 70 0 0,0
22.09.2018 17:00:00 10,7 2,2 11,2 13,8 13,4 14,7 21 11 41 22 W 70 3 0,0
22.09.2018 16:00:00 10,4 2,4 11,5 14,3 13,2 14,7 18 10 32 17 W 70 6 0,0
22.09.2018 15:00:00 10,2 3,0 11,7 14,6 12,9 14,7 22 12 36 19 W 61 18 0,0
22.09.2018 14:00:00 9,8 2,7 11,9 14,8 12,5 14,7 26 14 42 23 W 45 29 0,0
22.09.2018 13:00:00 9,7 2,9 11,2 14,6 12,0 14,7 26 14 43 23 WSW 61 51 0,0
22.09.2018 12:00:00 9,1 3,6 11,7 13,1 11,7 14,6 23 12 46 25 W 47 22 0,0
22.09.2018 11:00:00 8,3 4,5 10,1 11,3 11,5 14,6 23 12 40 21 W 55 6 0,0
22.09.2018 10:00:00 6,8 4,1 7,5 9,5 11,5 14,6 19 11 36 19 W 52 3 0,0
22.09.2018 09:00:00 6,1 3,9 6,2 8,1 11,7 14,6 23 12 37 20 WSW 67 0 0,0
22.09.2018 08:00:00 5,3 3,6 5,3 6,6 12,1 14,6 18 10 31 17 SW 65 29 0,0
22.09.2018 07:00:00 4,5 2,9 3,2 5,9 12,5 14,6 18 10 32 18 SW 61 0 0,0
22.09.2018 06:00:00 4,9 3,1 3,7 6,3 13,1 14,6 18 10 29 15 WSW 70 0 0,0
22.09.2018 05:00:00 5,3 3,5 4,0 6,8 13,6 14,6 20 11 37 20 WSW 53 0 0,0
22.09.2018 04:00:00 5,8 3,5 4,4 7,4 14,2 14,6 20 11 44 24 W 60 0 0,0
22.09.2018 03:00:00 5,9 3,8 4,8 8,4 14,7 14,6 22 12 40 22 W 54 0 0,0
22.09.2018 02:00:00 6,7 5,1 6,0 9,6 15,3 14,6 22 12 46 25 WNW 25 0 0,0
22.09.2018 01:00:00 7,5 6,5 7,4 10,7 15,8 14,6 21 11 48 26 WNW 9 0 0,0
22.09.2018 00:00:00 7,8 7,0 7,6 11,2 16,4 14,6 26 14 52 28 WNW 9 0 0,0
21.09.2018 23:00:00 8,1 7,5 8,1 11,7 17,0 14,6 23 13 41 22 NW 7 0 0,0
21.09.2018 22:00:00 8,4 7,5 8,3 12,6 17,6 14,6 20 11 37 20 NW 13 0 0,9
21.09.2018 21:00:00 8,6 7,7 8,6 13,7 18,3 14,6 21 11 53 29 WNW 3,2 0 0,2
21.09.2018 20:00:00 11,7 10,7 11,2 16,0 18,8 14,6 25 13 48 26 NW 0,1 0 5,5
21.09.2018 19:00:00 14,6 11,9 13,2 18,2 19,1 14,6 36 19 51 28 W 2,1 0 0,2
21.09.2018 18:00:00 21,2 10,1 20,4 21,1 19,1 14,5 26 14 39 21 SSW 46 0 0,0
21.09.2018 17:00:00 21,3 10,5 21,0 22,7 18,9 14,5 28 15 40 21 SSW 41 2 0,0
21.09.2018 16:00:00 21,6 11,2 22,1 24,4 18,5 14,5 27 15 44 24 SSW 34 39 0,0
21.09.2018 15:00:00 22,0 11,2 23,7 25,6 17,8 14,5 31 17 46 25 SSW 30 54 0,0
21.09.2018 14:00:00 21,1 11,7 24,7 25,2 17,0 14,5 29 16 42 23 S 26 55 0,0
21.09.2018 13:00:00 20,1 11,4 23,9 24,5 16,2 14,5 31 17 45 25 S 14 60 0,0
21.09.2018 12:00:00 19,5 10,9 21,8 22,6 15,6 14,5 31 17 43 23 S 17 60 0,0
21.09.2018 11:00:00 18,9 10,3 20,7 19,4 15,2 14,5 29 16 45 24 S 25 51 0,0
21.09.2018 10:00:00 16,7 10,6 17,2 17,0 15,0 14,5 26 14 40 21 S 29 57 0,0
21.09.2018 09:00:00 16,6 10,7 17,0 14,8 15,0 14,5 29 16 39 21 S 21 60 0,0
21.09.2018 08:00:00 15,3 10,3 14,5 12,9 15,2 14,5 27 14 37 20 SSW 22 32 0,0
21.09.2018 07:00:00 13,9 10,0 11,9 12,2 15,5 14,5 25 13 36 20 SSW 27 0 0,0
21.09.2018 06:00:00 13,4 10,4 11,5 12,4 15,8 14,4 19 11 26 14 S 22 0 0,0
21.09.2018 05:00:00 14,4 10,5 12,5 12,8 16,1 14,4 23 12 26 14 S 17 0 0,0
21.09.2018 04:00:00 16,1 10,7 13,7 13,2 16,4 14,4 24 13 29 16 S 33 0 0,0
21.09.2018 03:00:00 16,7 10,5 14,1 13,6 16,7 14,4 23 12 29 16 SSW 42 0 0,0
21.09.2018 02:00:00 16,8 10,8 14,4 14,0 17,1 14,4 23 13 28 15 SSW 38 0 0,0
21.09.2018 01:00:00 16,5 10,7 13,9 14,4 17,5 14,4 21 12 26 14 SSW 36 0 0,0
21.09.2018 00:00:00 16,7 10,8 14,0 14,9 17,9 14,4 18 10 23 12 SSW 38 0 0,0
20.09.2018 23:00:00 17,8 10,7 15,0 15,7 18,3 14,4 21 11 27 15 SSW 42 0 0,0
20.09.2018 22:00:00 18,4 11,0 16,1 16,3 18,8 14,4 23 13 27 15 SW 38 0 0,0
20.09.2018 21:00:00 17,8 10,4 14,9 17,2 19,2 14,4 19 10 24 13 SW 49 0 0,0
20.09.2018 20:00:00 18,8 9,9 16,5 18,5 19,6 14,4 18 10 23 12 SW 53 0 0,0
20.09.2018 19:00:00 20,4 11,3 17,7 20,7 19,7 14,4 14 8 27 15 SSW 46 49 0,0
20.09.2018 18:00:00 22,4 11,1 21,5 23,2 19,6 14,4 18 10 34 18 SSW 33 60 0,0
20.09.2018 17:00:00 22,9 11,1 23,1 24,5 19,3 14,4 23 12 35 19 SSW 52 39 0,0
20.09.2018 16:00:00 22,5 11,8 22,6 25,8 18,8 14,4 24 13 38 21 S 38 46 0,0
20.09.2018 15:00:00 23,0 12,2 25,0 26,8 18,2 14,3 18 10 37 20 S 23 48 0,0
20.09.2018 14:00:00 22,0 12,3 23,7 26,6 17,4 14,3 20 11 34 18 S 23 47 0,0
20.09.2018 13:00:00 21,8 12,4 24,9 25,6 16,5 14,3 17 9 31 17 S 27 60 0,0
20.09.2018 12:00:00 22,1 11,7 25,3 24,5 15,7 14,3 17 9 29 15 S 34 60 0,0
20.09.2018 11:00:00 22,4 11,9 25,1 22,0 15,0 14,3 18 10 27 15 SSW 22 60 0,0
20.09.2018 10:00:00 21,6 11,4 23,0 18,8 14,6 14,3 13 7 22 12 SSW 33 60 0,0
20.09.2018 09:00:00 19,1 11,9 19,6 15,4 14,6 14,3 9 5 13 7 WSW 44 60 0,0
20.09.2018 08:00:00 17,5 11,1 15,8 12,8 14,8 14,3 10 6 14 7 W 59 30 0,0
20.09.2018 07:00:00 16,4 10,6 11,1 11,8 15,0 14,3 10 6 14 8 W 50 0 0,0
20.09.2018 06:00:00 16,2 10,7 11,4 12,1 15,3 14,3 11 6 17 9 W 49 0 0,0
20.09.2018 05:00:00 16,3 10,6 11,6 12,3 15,6 14,3 10 5 16 9 W 48 0 0,0
20.09.2018 04:00:00 15,9 9,9 9,8 12,5 15,9 14,3 9 5 13 7 WSW 48 0 0,0
20.09.2018 03:00:00 16,8 10,1 11,1 12,9 16,3 14,3 10 6 16 8 WSW 64 0 0,0
20.09.2018 02:00:00 16,9 10,5 11,9 13,4 16,7 14,3 11 6 17 9 WSW 57 0 0,0
20.09.2018 01:00:00 16,7 10,6 12,8 13,9 17,1 14,3 14 7 19 10 WSW 59 0 0,0
20.09.2018 00:00:00 16,8 9,6 12,3 14,4 17,5 14,3 14 7 20 11 SW 50 0 0,0
19.09.2018 23:00:00 17,0 9,5 13,7 15,1 18,0 14,3 17 9 25 13 SSW 64 0 0,0
19.09.2018 22:00:00 17,6 9,5 15,1 15,9 18,4 14,3 20 11 22 12 SW 53 0 0,0
19.09.2018 21:00:00 17,4 9,3 14,6 16,9 18,9 14,2 18 10 20 11 SSW 40 0 0,0
19.09.2018 20:00:00 17,5 9,3 14,3 18,3 19,2 14,2 16 8 17 9 SSW 35 0 0,0
19.09.2018 19:00:00 19,5 10,7 16,6 20,7 19,4 14,2 13 7 16 9 SSW 27 46 0,0
19.09.2018 18:00:00 21,1 10,7 20,5 23,6 19,1 14,2 12 6 23 13 WSW 33 32 0,0
19.09.2018 17:00:00 22,2 11,1 22,4 25,4 18,5 14,2 10 5 25 13 SSW 29 31 0,0
19.09.2018 16:00:00 23,9 10,0 27,7 27,2 17,8 14,2 10 6 26 14 E 19 60 0,0
19.09.2018 15:00:00 23,9 9,3 27,2 26,0 17,0 14,2 6 3 17 9 W 11 48 0,0
19.09.2018 14:00:00 23,5 7,4 26,9 26,5 16,0 14,2 8 5 20 11 W 45 60 0,0
19.09.2018 13:00:00 22,5 10,1 25,9 24,6 15,1 14,2 10 6 21 11 NNW 20 60 0,0
19.09.2018 12:00:00 20,1 11,5 23,4 21,0 14,5 14,2 10 5 23 13 NW 19 37 0,0
19.09.2018 11:00:00 18,8 11,0 19,9 19,0 14,1 14,2 16 9 24 13 WNW 26 28 0,0
19.09.2018 10:00:00 16,9 10,6 16,9 15,0 13,9 14,2 14 8 25 14 W 37 0 0,0
19.09.2018 09:00:00 16,2 10,1 15,6 13,5 14,0 14,2 16 9 22 12 W 37 0 0,0
19.09.2018 08:00:00 15,9 9,9 14,1 12,2 14,1 14,2 17 9 24 13 W 38 17 0,0
19.09.2018 07:00:00 16,4 9,8 13,4 11,7 14,3 14,2 17 9 22 12 W 39 0 0,0
19.09.2018 06:00:00 16,8 9,6 13,4 11,7 14,6 14,2 15 8 17 9 W 43 0 0,0
19.09.2018 05:00:00 16,9 9,5 11,1 11,7 14,9 14,2 11 6 14 8 W 42 0 0,0
19.09.2018 04:00:00 16,8 9,7 11,4 12,1 15,1 14,2 12 7 18 10 SW 39 0 0,0
19.09.2018 03:00:00 16,4 10,6 12,9 12,4 15,5 14,2 15 8 21 11 SW 30 0 0,0
19.09.2018 02:00:00 15,9 10,7 13,1 12,8 15,8 14,2 18 10 23 12 SSW 26 0 0,0
19.09.2018 01:00:00 16,5 10,1 13,7 13,1 16,2 14,2 19 11 23 13 SSW 35 0 0,0
19.09.2018 00:00:00 15,8 10,2 12,5 13,5 16,6 14,2 17 9 22 12 SSW 31 0 0,0
18.09.2018 23:00:00 16,1 11,0 12,7 14,2 17,0 14,2 16 9 18 10 SSW 23 0 0,0
18.09.2018 22:00:00 16,8 11,6 13,6 14,9 17,5 14,2 12 7 15 8 S 21 0 0,0
18.09.2018 21:00:00 16,9 11,4 12,9 15,9 17,9 14,2 11 6 13 7 S 18 0 0,0
18.09.2018 20:00:00 17,8 11,1 12,8 17,2 18,2 14,2 8 4 15 8 S 20 0 0,0
18.09.2018 19:00:00 19,5 10,9 17,0 19,3 18,3 14,2 13 7 23 13 S 33 52 0,0
18.09.2018 18:00:00 21,4 10,8 21,0 22,1 18,1 14,2 17 9 32 18 S 20 60 0,0
18.09.2018 17:00:00 21,9 10,3 23,1 23,9 17,6 14,2 18 10 31 17 S 24 60 0,0
18.09.2018 16:00:00 21,9 10,5 24,2 24,3 17,1 14,2 18 10 32 17 S 32 60 0,0
18.09.2018 15:00:00 20,9 11,3 23,8 25,6 16,2 14,2 21 11 32 17 S 19 60 0,0
18.09.2018 14:00:00 21,5 12,3 25,4 25,1 15,3 14,2 17 9 27 14 SSW 13 60 0,0
18.09.2018 13:00:00 20,6 12,5 24,2 23,6 14,4 14,2 21 12 29 16 S 17 60 0,0
18.09.2018 12:00:00 19,9 11,6 23,2 21,8 13,5 14,2 17 9 29 15 S 20 60 0,0
18.09.2018 11:00:00 18,2 11,7 20,5 19,0 12,9 14,2 18 10 24 13 S 18 60 0,0
18.09.2018 10:00:00 16,7 11,7 18,3 16,0 12,6 14,2 16 9 22 12 S 23 60 0,0
18.09.2018 09:00:00 14,6 9,8 14,8 12,9 12,6 14,2 16 9 21 12 S 17 56 0,0
18.09.2018 08:00:00 12,5 8,8 11,0 10,4 12,7 14,2 13 7 15 8 SSE 18 0 0,0
18.09.2018 07:00:00 14,6 9,9 11,9 10,0 12,9 14,2 14 8 16 8 SSW 28 0 0,0
18.09.2018 06:00:00 14,3 9,8 11,4 10,2 13,1 14,2 16 9 21 11 SSW 27 0 0,0
18.09.2018 05:00:00 14,2 9,4 11,5 10,1 13,3 14,2 19 10 22 12 SSW 29 0 0,0
18.09.2018 04:00:00 13,4 8,0 10,1 9,9 13,6 14,2 14 8 16 9 S 29 0 0,0
18.09.2018 03:00:00 12,7 6,6 9,6 10,1 14,0 14,2 15 8 18 10 S 34 0 0,0
18.09.2018 02:00:00 12,9 6,7 9,8 10,4 14,3 14,2 13 7 16 9 SSE 32 0 0,0
18.09.2018 01:00:00 13,3 6,6 9,0 10,9 14,7 14,3 10 6 14 8 SSE 38 0 0,0
18.09.2018 00:00:00 13,9 7,1 10,9 11,6 15,1 14,3 13 7 16 9 SSE 33 0 0,0
17.09.2018 23:00:00 14,0 7,0 11,2 12,0 15,5 14,3 13 7 20 11 SSE 36 0 0,0
17.09.2018 22:00:00 14,4 6,7 11,7 12,6 15,9 14,3 14 8 21 11 S 43 0 0,0
17.09.2018 21:00:00 14,6 6,8 11,3 13,5 16,3 14,3 11 6 17 9 S 46 0 0,0
17.09.2018 20:00:00 15,0 6,9 11,9 14,8 16,6 14,3 11 6 14 8 SSE 48 0 0,0
17.09.2018 19:00:00 16,7 7,3 13,9 16,7 16,7 14,3 10 6 17 9 S 51 27 0,0
17.09.2018 18:00:00 18,9 7,8 18,7 19,2 16,6 14,3 15 8 23 12 S 44 60 0,0
17.09.2018 17:00:00 20,0 7,8 21,3 21,1 16,1 14,3 14 8 29 15 S 23 60 0,0
17.09.2018 16:00:00 20,1 8,1 22,1 21,3 15,6 14,3 16 9 24 13 S 28 60 0,0
17.09.2018 15:00:00 19,6 7,8 22,4 22,2 15,0 14,3 15 8 23 12 SSE 16 60 0,0
17.09.2018 14:00:00 18,8 8,0 20,9 21,3 14,1 14,3 16 9 22 12 SSE 45 60 0,0
17.09.2018 13:00:00 19,1 8,6 22,5 21,1 13,3 14,3 15 8 26 14 S 24 60 0,0
17.09.2018 12:00:00 18,2 8,0 20,6 20,0 12,5 14,3 16 8 24 13 S 28 60 0,0
17.09.2018 11:00:00 17,8 8,7 19,5 18,4 11,8 14,3 14 8 19 11 SSE 37 60 0,0
17.09.2018 10:00:00 17,0 6,5 18,5 15,4 11,3 14,3 9 5 14 8 WSW 27 60 0,0
17.09.2018 09:00:00 14,6 8,0 15,2 11,6 11,3 14,4 5 3 12 6 SSW 42 46 0,0
17.09.2018 08:00:00 13,4 7,0 12,5 9,2 11,4 14,4 9 5 14 7 WSW 47 40 0,0
17.09.2018 07:00:00 11,5 6,5 7,3 7,5 11,7 14,4 14 7 16 9 SW 37 0 0,0
17.09.2018 06:00:00 10,9 7,0 7,0 7,8 11,9 14,4 16 9 19 11 SSW 26 0 0,0
17.09.2018 05:00:00 11,8 6,9 8,4 8,1 12,2 14,4 18 10 20 11 SW 33 0 0,0
17.09.2018 04:00:00 11,2 6,1 8,0 8,2 12,5 14,4 18 10 22 12 SSW 39 0 0,0
17.09.2018 03:00:00 11,6 5,6 8,4 8,5 12,8 14,4 20 11 23 12 SSW 45 0 0,0

tt = temperature
td = dewpoint
tt 5cm = temperature 5cm
tt -5cm = temperature -5cm
tt -20cm = temperature -20cm
tt -100cm = temperature -100cm
ff = wind speed
fx = gusts
dd = wind direction
vv = visibility
sd = sunshine duration
rr = precipitation

Next stations